KACQ

Details ICAO KACQ
Name WASECA MUNI
Region United States
Timezone America/Chicago (UTC-5.0)
Plans Departing 0
Arriving 0
Stats Elevation 1,126 ft / 343 m (AMSL)
Location 44.073470° -93.552943°
Runways 1
Magnetic Variation 0.504° E
Sunrise 2018-05-21 10:43:21 UTC / 2018-05-21 05:43:21 Local
Sunset 2018-05-22 01:41:08 UTC / 2018-05-21 20:41:08 Local
Advertisement - Login to hide

Runways

ID Width Length Bearing (true) Bearing (mag) Surface Threshold Offset Overrun Length
15 75 ft / 23 m 3,400 ft / 1,036 m 154.21° 153.71° Asphalt 0 ft / 0 m 0 ft / 0 m
33 75 ft / 23 m 3,400 ft / 1,036 m 334.21° 333.71° Asphalt 0 ft / 0 m 0 ft / 0 m

Map

Weather


0- 5 10 15 20 25 30 35+ Temperature / ° C

Clouds and Precipitation
Forecast for 2018-05-21 12:00 UTC. Updated 4 hours ago

Ground ~20,000 ft ~40,000 ft Winds

METAR

KACQ 211515Z AUTO 13006KT 10SM BKN016 OVC028 15/11 A3008 RMK AO2

TAF

Not found

Frequencies

Unicom 122.80 MHz CTAF/UNICOM
Warning: Do not use this data for real-world aviation or navigation. No guarantee of current accuracy is given.